sensor_id;sensor_type;location;lat;lon;timestamp;P1;durP1;ratioP1;P2;durP2;ratioP2
17369;SDS011;8802;52.402;4.920;2023-08-30T00:02:18;4.65;;;3.67;;
17369;SDS011;8802;52.402;4.920;2023-08-30T00:04:45;4.53;;;3.42;;
17369;SDS011;8802;52.402;4.920;2023-08-30T00:07:12;4.80;;;3.65;;
17369;SDS011;8802;52.402;4.920;2023-08-30T00:09:39;3.95;;;3.65;;
17369;SDS011;8802;52.402;4.920;2023-08-30T00:12:06;4.30;;;3.75;;
17369;SDS011;8802;52.402;4.920;2023-08-30T00:14:34;3.55;;;3.30;;
17369;SDS011;8802;52.402;4.920;2023-08-30T00:17:01;3.97;;;3.67;;
17369;SDS011;8802;52.402;4.920;2023-08-30T00:19:28;4.63;;;4.22;;
17369;SDS011;8802;52.402;4.920;2023-08-30T00:21:55;4.32;;;3.60;;
17369;SDS011;8802;52.402;4.920;2023-08-30T00:24:22;4.05;;;3.65;;
17369;SDS011;8802;52.402;4.920;2023-08-30T00:26:49;4.18;;;3.78;;
17369;SDS011;8802;52.402;4.920;2023-08-30T00:29:16;4.63;;;4.20;;
17369;SDS011;8802;52.402;4.920;2023-08-30T00:31:44;5.07;;;4.68;;
17369;SDS011;8802;52.402;4.920;2023-08-30T00:34:11;5.40;;;4.32;;
17369;SDS011;8802;52.402;4.920;2023-08-30T00:36:38;5.22;;;4.72;;
17369;SDS011;8802;52.402;4.920;2023-08-30T00:39:05;5.75;;;4.90;;
17369;SDS011;8802;52.402;4.920;2023-08-30T00:41:33;5.18;;;4.68;;
17369;SDS011;8802;52.402;4.920;2023-08-30T00:44:00;5.97;;;5.38;;
17369;SDS011;8802;52.402;4.920;2023-08-30T00:46:27;5.00;;;4.50;;
17369;SDS011;8802;52.402;4.920;2023-08-30T00:48:56;5.50;;;5.00;;
17369;SDS011;8802;52.402;4.920;2023-08-30T00:51:23;6.03;;;5.43;;
17369;SDS011;8802;52.402;4.920;2023-08-30T00:53:50;6.20;;;5.60;;
17369;SDS011;8802;52.402;4.920;2023-08-30T00:56:17;5.72;;;5.13;;
17369;SDS011;8802;52.402;4.920;2023-08-30T00:58:46;5.65;;;4.90;;
17369;SDS011;8802;52.402;4.920;2023-08-30T01:01:14;5.22;;;4.82;;
17369;SDS011;8802;52.402;4.920;2023-08-30T01:03:42;5.43;;;5.03;;
17369;SDS011;8802;52.402;4.920;2023-08-30T01:06:10;5.22;;;4.82;;
17369;SDS011;8802;52.402;4.920;2023-08-30T01:08:38;5.13;;;4.50;;
17369;SDS011;8802;52.402;4.920;2023-08-30T01:11:08;5.35;;;4.90;;
17369;SDS011;8802;52.402;4.920;2023-08-30T01:13:40;5.95;;;5.32;;
17369;SDS011;8802;52.402;4.920;2023-08-30T01:16:11;5.80;;;5.20;;
17369;SDS011;8802;52.402;4.920;2023-08-30T01:18:38;6.20;;;5.25;;
17369;SDS011;8802;52.402;4.920;2023-08-30T01:21:08;6.35;;;5.28;;
17369;SDS011;8802;52.402;4.920;2023-08-30T01:23:48;5.60;;;5.10;;
17369;SDS011;8802;52.402;4.920;2023-08-30T01:26:20;5.53;;;5.03;;
17369;SDS011;8802;52.402;4.920;2023-08-30T01:28:56;5.53;;;5.03;;
17369;SDS011;8802;52.402;4.920;2023-08-30T01:31:27;6.18;;;5.60;;
17369;SDS011;8802;52.402;4.920;2023-08-30T01:33:55;6.13;;;5.53;;
17369;SDS011;8802;52.402;4.920;2023-08-30T01:36:22;5.18;;;4.38;;
17369;SDS011;8802;52.402;4.920;2023-08-30T01:38:50;6.35;;;5.40;;
17369;SDS011;8802;52.402;4.920;2023-08-30T01:41:19;5.10;;;4.70;;
17369;SDS011;8802;52.402;4.920;2023-08-30T01:43:48;5.47;;;4.97;;
17369;SDS011;8802;52.402;4.920;2023-08-30T01:46:19;6.20;;;5.60;;
17369;SDS011;8802;52.402;4.920;2023-08-30T01:48:47;7.60;;;5.43;;
17369;SDS011;8802;52.402;4.920;2023-08-30T01:51:15;6.25;;;5.65;;
17369;SDS011;8802;52.402;4.920;2023-08-30T01:53:43;9.05;;;5.75;;
17369;SDS011;8802;52.402;4.920;2023-08-30T01:56:10;5.85;;;5.25;;
17369;SDS011;8802;52.402;4.920;2023-08-30T01:58:37;6.43;;;5.82;;
17369;SDS011;8802;52.402;4.920;2023-08-30T02:01:04;5.15;;;4.60;;
17369;SDS011;8802;52.402;4.920;2023-08-30T02:03:32;6.40;;;5.80;;
17369;SDS011;8802;52.402;4.920;2023-08-30T02:06:00;5.85;;;5.28;;
17369;SDS011;8802;52.402;4.920;2023-08-30T02:08:35;6.03;;;5.40;;
17369;SDS011;8802;52.402;4.920;2023-08-30T02:11:07;6.43;;;5.82;;
17369;SDS011;8802;52.402;4.920;2023-08-30T02:13:38;6.60;;;5.97;;
17369;SDS011;8802;52.402;4.920;2023-08-30T02:16:05;6.45;;;5.85;;
17369;SDS011;8802;52.402;4.920;2023-08-30T02:18:36;6.70;;;6.03;;
17369;SDS011;8802;52.402;4.920;2023-08-30T02:21:03;6.43;;;5.93;;
17369;SDS011;8802;52.402;4.920;2023-08-30T02:23:30;6.57;;;5.97;;
17369;SDS011;8802;52.402;4.920;2023-08-30T02:25:57;6.55;;;6.00;;
17369;SDS011;8802;52.402;4.920;2023-08-30T02:28:24;6.65;;;6.05;;
17369;SDS011;8802;52.402;4.920;2023-08-30T02:30:52;6.47;;;5.88;;
17369;SDS011;8802;52.402;4.920;2023-08-30T02:33:19;6.40;;;5.70;;
17369;SDS011;8802;52.402;4.920;2023-08-30T02:35:47;6.88;;;6.28;;
17369;SDS011;8802;52.402;4.920;2023-08-30T02:38:14;7.95;;;6.60;;
17369;SDS011;8802;52.402;4.920;2023-08-30T02:40:42;6.88;;;6.20;;
17369;SDS011;8802;52.402;4.920;2023-08-30T02:43:09;7.43;;;6.72;;
17369;SDS011;8802;52.402;4.920;2023-08-30T02:45:36;6.90;;;6.30;;
17369;SDS011;8802;52.402;4.920;2023-08-30T02:48:03;7.68;;;6.70;;
17369;SDS011;8802;52.402;4.920;2023-08-30T02:50:31;7.25;;;6.55;;
17369;SDS011;8802;52.402;4.920;2023-08-30T02:52:59;7.05;;;6.22;;
17369;SDS011;8802;52.402;4.920;2023-08-30T02:55:26;8.38;;;7.53;;
17369;SDS011;8802;52.402;4.920;2023-08-30T02:57:53;8.57;;;7.25;;
17369;SDS011;8802;52.402;4.920;2023-08-30T03:00:20;7.90;;;7.20;;
17369;SDS011;8802;52.402;4.920;2023-08-30T03:02:47;7.68;;;6.95;;
17369;SDS011;8802;52.402;4.920;2023-08-30T03:05:14;7.68;;;6.97;;
17369;SDS011;8802;52.402;4.920;2023-08-30T03:07:41;7.10;;;6.50;;
17369;SDS011;8802;52.402;4.920;2023-08-30T03:10:10;8.75;;;7.90;;
17369;SDS011;8802;52.402;4.920;2023-08-30T03:12:37;9.00;;;7.82;;
17369;SDS011;8802;52.402;4.920;2023-08-30T03:15:05;8.38;;;7.22;;
17369;SDS011;8802;52.402;4.920;2023-08-30T03:17:32;8.45;;;7.65;;
17369;SDS011;8802;52.402;4.920;2023-08-30T03:20:00;9.48;;;8.52;;
17369;SDS011;8802;52.402;4.920;2023-08-30T03:22:28;8.32;;;7.53;;
17369;SDS011;8802;52.402;4.920;2023-08-30T03:24:55;8.85;;;8.02;;
17369;SDS011;8802;52.402;4.920;2023-08-30T03:27:23;8.82;;;7.78;;
17369;SDS011;8802;52.402;4.920;2023-08-30T03:29:50;8.57;;;7.47;;
17369;SDS011;8802;52.402;4.920;2023-08-30T03:32:17;8.65;;;7.75;;
17369;SDS011;8802;52.402;4.920;2023-08-30T03:34:44;9.68;;;8.77;;
17369;SDS011;8802;52.402;4.920;2023-08-30T03:37:12;9.85;;;8.90;;
17369;SDS011;8802;52.402;4.920;2023-08-30T03:39:40;8.82;;;8.02;;
17369;SDS011;8802;52.402;4.920;2023-08-30T03:42:07;9.38;;;8.43;;
17369;SDS011;8802;52.402;4.920;2023-08-30T03:44:37;10.07;;;9.07;;
17369;SDS011;8802;52.402;4.920;2023-08-30T03:47:04;9.40;;;8.48;;
17369;SDS011;8802;52.402;4.920;2023-08-30T03:49:31;9.68;;;8.68;;
17369;SDS011;8802;52.402;4.920;2023-08-30T03:51:58;10.70;;;9.70;;
17369;SDS011;8802;52.402;4.920;2023-08-30T03:54:25;10.70;;;9.57;;
17369;SDS011;8802;52.402;4.920;2023-08-30T03:56:52;12.05;;;9.68;;
17369;SDS011;8802;52.402;4.920;2023-08-30T03:59:19;11.27;;;10.20;;
17369;SDS011;8802;52.402;4.920;2023-08-30T04:01:49;10.85;;;9.77;;
17369;SDS011;8802;52.402;4.920;2023-08-30T04:04:16;10.18;;;9.18;;
17369;SDS011;8802;52.402;4.920;2023-08-30T04:06:43;9.43;;;8.57;;
17369;SDS011;8802;52.402;4.920;2023-08-30T04:09:10;10.52;;;9.40;;
17369;SDS011;8802;52.402;4.920;2023-08-30T04:11:36;11.38;;;10.27;;
17369;SDS011;8802;52.402;4.920;2023-08-30T04:14:03;9.95;;;8.98;;
17369;SDS011;8802;52.402;4.920;2023-08-30T04:16:30;10.20;;;9.18;;
17369;SDS011;8802;52.402;4.920;2023-08-30T04:18:58;10.35;;;9.35;;
17369;SDS011;8802;52.402;4.920;2023-08-30T04:21:25;10.45;;;9.45;;
17369;SDS011;8802;52.402;4.920;2023-08-30T04:23:52;11.25;;;10.15;;
17369;SDS011;8802;52.402;4.920;2023-08-30T04:26:19;10.32;;;9.32;;
17369;SDS011;8802;52.402;4.920;2023-08-30T04:28:46;10.57;;;8.93;;
17369;SDS011;8802;52.402;4.920;2023-08-30T04:31:13;10.40;;;9.50;;
17369;SDS011;8802;52.402;4.920;2023-08-30T04:33:39;10.45;;;9.43;;
17369;SDS011;8802;52.402;4.920;2023-08-30T04:36:08;10.27;;;9.20;;
17369;SDS011;8802;52.402;4.920;2023-08-30T04:38:34;10.57;;;9.57;;
17369;SDS011;8802;52.402;4.920;2023-08-30T04:41:01;10.02;;;8.90;;
17369;SDS011;8802;52.402;4.920;2023-08-30T04:43:28;10.43;;;9.35;;
17369;SDS011;8802;52.402;4.920;2023-08-30T04:45:55;8.98;;;8.07;;
17369;SDS011;8802;52.402;4.920;2023-08-30T04:48:22;9.73;;;8.73;;
17369;SDS011;8802;52.402;4.920;2023-08-30T04:50:57;9.80;;;8.75;;
17369;SDS011;8802;52.402;4.920;2023-08-30T04:53:26;10.43;;;9.43;;
17369;SDS011;8802;52.402;4.920;2023-08-30T04:55:53;11.25;;;10.15;;
17369;SDS011;8802;52.402;4.920;2023-08-30T04:58:20;8.88;;;8.05;;
17369;SDS011;8802;52.402;4.920;2023-08-30T05:00:47;10.27;;;9.13;;
17369;SDS011;8802;52.402;4.920;2023-08-30T05:03:14;11.32;;;9.85;;
17369;SDS011;8802;52.402;4.920;2023-08-30T05:05:44;9.45;;;8.25;;
17369;SDS011;8802;52.402;4.920;2023-08-30T05:08:11;9.98;;;8.95;;
17369;SDS011;8802;52.402;4.920;2023-08-30T05:10:39;10.65;;;9.65;;
17369;SDS011;8802;52.402;4.920;2023-08-30T05:13:08;11.77;;;9.55;;
17369;SDS011;8802;52.402;4.920;2023-08-30T05:15:35;10.80;;;9.68;;
17369;SDS011;8802;52.402;4.920;2023-08-30T05:18:02;11.00;;;9.90;;
17369;SDS011;8802;52.402;4.920;2023-08-30T05:20:29;10.88;;;9.77;;
17369;SDS011;8802;52.402;4.920;2023-08-30T05:22:56;10.55;;;9.50;;
17369;SDS011;8802;52.402;4.920;2023-08-30T05:25:23;11.43;;;8.85;;
17369;SDS011;8802;52.402;4.920;2023-08-30T05:27:51;9.85;;;8.93;;
17369;SDS011;8802;52.402;4.920;2023-08-30T05:30:18;12.05;;;9.90;;
17369;SDS011;8802;52.402;4.920;2023-08-30T05:32:45;10.35;;;9.35;;
17369;SDS011;8802;52.402;4.920;2023-08-30T05:35:12;9.82;;;8.88;;
17369;SDS011;8802;52.402;4.920;2023-08-30T05:37:39;10.57;;;9.57;;
17369;SDS011;8802;52.402;4.920;2023-08-30T05:40:07;12.15;;;10.85;;
17369;SDS011;8802;52.402;4.920;2023-08-30T05:42:34;9.82;;;8.90;;
17369;SDS011;8802;52.402;4.920;2023-08-30T05:45:02;10.15;;;8.93;;
17369;SDS011;8802;52.402;4.920;2023-08-30T05:47:30;10.30;;;9.30;;
17369;SDS011;8802;52.402;4.920;2023-08-30T05:49:57;11.30;;;9.60;;
17369;SDS011;8802;52.402;4.920;2023-08-30T05:52:24;10.43;;;9.43;;
17369;SDS011;8802;52.402;4.920;2023-08-30T05:54:51;10.90;;;9.80;;
17369;SDS011;8802;52.402;4.920;2023-08-30T05:57:18;11.70;;;9.40;;
17369;SDS011;8802;52.402;4.920;2023-08-30T05:59:47;9.85;;;8.93;;
17369;SDS011;8802;52.402;4.920;2023-08-30T06:02:16;10.85;;;9.75;;
17369;SDS011;8802;52.402;4.920;2023-08-30T06:04:42;10.70;;;9.65;;
17369;SDS011;8802;52.402;4.920;2023-08-30T06:07:09;10.45;;;9.45;;
17369;SDS011;8802;52.402;4.920;2023-08-30T06:09:36;9.75;;;8.75;;
17369;SDS011;8802;52.402;4.920;2023-08-30T06:12:04;10.40;;;9.40;;
17369;SDS011;8802;52.402;4.920;2023-08-30T06:14:31;8.68;;;7.93;;
17369;SDS011;8802;52.402;4.920;2023-08-30T06:16:58;9.30;;;8.10;;
17369;SDS011;8802;52.402;4.920;2023-08-30T06:19:27;10.35;;;9.35;;
17369;SDS011;8802;52.402;4.920;2023-08-30T06:21:54;10.95;;;9.95;;
17369;SDS011;8802;52.402;4.920;2023-08-30T06:24:21;10.43;;;9.25;;
17369;SDS011;8802;52.402;4.920;2023-08-30T06:26:48;11.50;;;9.55;;
17369;SDS011;8802;52.402;4.920;2023-08-30T06:29:15;11.82;;;10.23;;
17369;SDS011;8802;52.402;4.920;2023-08-30T06:31:42;11.38;;;10.15;;
17369;SDS011;8802;52.402;4.920;2023-08-30T06:34:10;12.27;;;9.90;;
17369;SDS011;8802;52.402;4.920;2023-08-30T06:36:38;11.40;;;9.25;;
17369;SDS011;8802;52.402;4.920;2023-08-30T06:39:05;11.38;;;9.88;;
17369;SDS011;8802;52.402;4.920;2023-08-30T06:41:32;10.93;;;9.80;;
17369;SDS011;8802;52.402;4.920;2023-08-30T06:43:59;10.80;;;9.68;;
17369;SDS011;8802;52.402;4.920;2023-08-30T06:46:26;9.32;;;8.43;;
17369;SDS011;8802;52.402;4.920;2023-08-30T06:48:53;10.23;;;9.15;;
17369;SDS011;8802;52.402;4.920;2023-08-30T06:51:20;9.13;;;8.05;;
17369;SDS011;8802;52.402;4.920;2023-08-30T06:53:48;9.68;;;8.68;;
17369;SDS011;8802;52.402;4.920;2023-08-30T06:56:15;10.05;;;9.05;;
17369;SDS011;8802;52.402;4.920;2023-08-30T06:58:42;9.75;;;8.57;;
17369;SDS011;8802;52.402;4.920;2023-08-30T07:01:09;10.05;;;9.15;;
17369;SDS011;8802;52.402;4.920;2023-08-30T07:03:35;12.43;;;11.02;;
17369;SDS011;8802;52.402;4.920;2023-08-30T07:06:02;10.95;;;9.85;;
17369;SDS011;8802;52.402;4.920;2023-08-30T07:08:29;10.85;;;9.63;;
17369;SDS011;8802;52.402;4.920;2023-08-30T07:10:58;10.43;;;9.38;;
17369;SDS011;8802;52.402;4.920;2023-08-30T07:13:26;10.88;;;9.88;;
17369;SDS011;8802;52.402;4.920;2023-08-30T07:15:53;11.85;;;10.75;;
17369;SDS011;8802;52.402;4.920;2023-08-30T07:18:20;13.50;;;10.95;;
17369;SDS011;8802;52.402;4.920;2023-08-30T07:20:47;11.27;;;10.10;;
17369;SDS011;8802;52.402;4.920;2023-08-30T07:23:14;10.43;;;9.40;;
17369;SDS011;8802;52.402;4.920;2023-08-30T07:25:41;8.85;;;7.97;;
17369;SDS011;8802;52.402;4.920;2023-08-30T07:28:10;10.52;;;9.52;;
17369;SDS011;8802;52.402;4.920;2023-08-30T07:30:37;11.00;;;9.15;;
17369;SDS011;8802;52.402;4.920;2023-08-30T07:33:04;8.77;;;7.88;;
17369;SDS011;8802;52.402;4.920;2023-08-30T07:35:31;9.43;;;8.52;;
17369;SDS011;8802;52.402;4.920;2023-08-30T07:37:58;9.80;;;8.90;;
17369;SDS011;8802;52.402;4.920;2023-08-30T07:40:25;10.43;;;8.27;;
17369;SDS011;8802;52.402;4.920;2023-08-30T07:42:54;9.32;;;8.48;;
17369;SDS011;8802;52.402;4.920;2023-08-30T07:45:22;8.77;;;7.88;;
17369;SDS011;8802;52.402;4.920;2023-08-30T07:47:49;8.23;;;7.43;;
17369;SDS011;8802;52.402;4.920;2023-08-30T07:50:16;8.98;;;7.97;;
17369;SDS011;8802;52.402;4.920;2023-08-30T07:52:43;7.75;;;7.05;;
17369;SDS011;8802;52.402;4.920;2023-08-30T07:55:11;9.02;;;8.23;;
17369;SDS011;8802;52.402;4.920;2023-08-30T07:57:38;8.05;;;7.28;;
17369;SDS011;8802;52.402;4.920;2023-08-30T08:00:06;9.55;;;8.45;;
17369;SDS011;8802;52.402;4.920;2023-08-30T08:02:35;8.93;;;8.13;;
17369;SDS011;8802;52.402;4.920;2023-08-30T08:05:02;9.35;;;8.38;;
17369;SDS011;8802;52.402;4.920;2023-08-30T08:07:29;8.70;;;7.97;;
17369;SDS011;8802;52.402;4.920;2023-08-30T08:09:56;8.18;;;7.43;;
17369;SDS011;8802;52.402;4.920;2023-08-30T08:12:23;8.10;;;7.30;;
17369;SDS011;8802;52.402;4.920;2023-08-30T08:14:52;7.88;;;6.90;;
17369;SDS011;8802;52.402;4.920;2023-08-30T08:17:19;7.38;;;6.78;;
17369;SDS011;8802;52.402;4.920;2023-08-30T08:19:47;7.40;;;6.70;;
17369;SDS011;8802;52.402;4.920;2023-08-30T08:22:14;7.78;;;6.18;;
17369;SDS011;8802;52.402;4.920;2023-08-30T08:24:41;7.95;;;6.25;;
17369;SDS011;8802;52.402;4.920;2023-08-30T08:27:08;7.55;;;6.75;;
17369;SDS011;8802;52.402;4.920;2023-08-30T08:29:36;5.97;;;5.47;;
17369;SDS011;8802;52.402;4.920;2023-08-30T08:32:03;6.78;;;6.13;;
17369;SDS011;8802;52.402;4.920;2023-08-30T08:34:30;6.65;;;6.05;;
17369;SDS011;8802;52.402;4.920;2023-08-30T08:36:58;6.47;;;5.88;;
17369;SDS011;8802;52.402;4.920;2023-08-30T08:39:25;6.13;;;5.63;;
17369;SDS011;8802;52.402;4.920;2023-08-30T08:41:52;6.50;;;5.90;;
17369;SDS011;8802;52.402;4.920;2023-08-30T08:44:20;5.80;;;5.30;;
17369;SDS011;8802;52.402;4.920;2023-08-30T08:46:50;6.07;;;5.43;;
17369;SDS011;8802;52.402;4.920;2023-08-30T08:49:18;6.53;;;5.40;;
17369;SDS011;8802;52.402;4.920;2023-08-30T08:51:45;5.47;;;4.97;;
17369;SDS011;8802;52.402;4.920;2023-08-30T08:54:13;5.38;;;4.88;;
17369;SDS011;8802;52.402;4.920;2023-08-30T08:56:41;6.75;;;4.70;;
17369;SDS011;8802;52.402;4.920;2023-08-30T08:59:10;4.63;;;4.22;;
17369;SDS011;8802;52.402;4.920;2023-08-30T09:01:39;4.70;;;4.30;;
17369;SDS011;8802;52.402;4.920;2023-08-30T09:04:08;4.93;;;4.53;;
17369;SDS011;8802;52.402;4.920;2023-08-30T09:06:47;5.15;;;3.92;;
17369;SDS011;8802;52.402;4.920;2023-08-30T09:09:29;4.32;;;3.92;;
17369;SDS011;8802;52.402;4.920;2023-08-30T09:12:00;4.18;;;3.88;;
17369;SDS011;8802;52.402;4.920;2023-08-30T09:14:28;3.97;;;3.63;;
17369;SDS011;8802;52.402;4.920;2023-08-30T09:16:55;4.53;;;4.07;;
17369;SDS011;8802;52.402;4.920;2023-08-30T09:19:23;4.85;;;4.45;;
17369;SDS011;8802;52.402;4.920;2023-08-30T09:21:50;5.82;;;4.05;;
17369;SDS011;8802;52.402;4.920;2023-08-30T09:24:18;6.00;;;4.72;;
17369;SDS011;8802;52.402;4.920;2023-08-30T09:26:48;4.63;;;4.22;;
17369;SDS011;8802;52.402;4.920;2023-08-30T09:29:16;5.10;;;4.60;;
17369;SDS011;8802;52.402;4.920;2023-08-30T09:31:43;5.22;;;4.43;;
17369;SDS011;8802;52.402;4.920;2023-08-30T09:34:11;4.07;;;3.70;;
17369;SDS011;8802;52.402;4.920;2023-08-30T09:36:38;3.78;;;3.45;;
17369;SDS011;8802;52.402;4.920;2023-08-30T09:39:07;4.65;;;4.25;;
17369;SDS011;8802;52.402;4.920;2023-08-30T09:41:35;5.38;;;4.22;;
17369;SDS011;8802;52.402;4.920;2023-08-30T09:44:08;4.80;;;4.07;;
17369;SDS011;8802;52.402;4.920;2023-08-30T09:46:42;4.40;;;3.90;;
17369;SDS011;8802;52.402;4.920;2023-08-30T09:49:10;6.22;;;4.05;;
17369;SDS011;8802;52.402;4.920;2023-08-30T09:51:38;4.03;;;3.55;;
17369;SDS011;8802;52.402;4.920;2023-08-30T09:54:13;5.20;;;3.03;;
17369;SDS011;8802;52.402;4.920;2023-08-30T09:56:42;4.75;;;2.90;;
17369;SDS011;8802;52.402;4.920;2023-08-30T09:59:11;4.35;;;2.28;;
17369;SDS011;8802;52.402;4.920;2023-08-30T10:01:39;3.60;;;2.50;;
17369;SDS011;8802;52.402;4.920;2023-08-30T10:04:07;3.47;;;2.75;;
17369;SDS011;8802;52.402;4.920;2023-08-30T10:06:35;4.65;;;2.80;;
17369;SDS011;8802;52.402;4.920;2023-08-30T10:09:03;4.22;;;2.53;;
17369;SDS011;8802;52.402;4.920;2023-08-30T10:11:32;4.53;;;2.60;;
17369;SDS011;8802;52.402;4.920;2023-08-30T10:14:01;4.25;;;2.55;;
17369;SDS011;8802;52.402;4.920;2023-08-30T10:16:32;2.92;;;2.10;;
17369;SDS011;8802;52.402;4.920;2023-08-30T10:19:06;4.30;;;2.70;;
17369;SDS011;8802;52.402;4.920;2023-08-30T10:21:36;3.40;;;2.85;;
17369;SDS011;8802;52.402;4.920;2023-08-30T10:24:05;5.80;;;2.80;;
17369;SDS011;8802;52.402;4.920;2023-08-30T10:26:35;2.90;;;2.63;;
17369;SDS011;8802;52.402;4.920;2023-08-30T10:29:04;3.83;;;2.80;;
17369;SDS011;8802;52.402;4.920;2023-08-30T10:31:33;4.30;;;3.25;;
17369;SDS011;8802;52.402;4.920;2023-08-30T10:34:00;4.68;;;2.50;;
17369;SDS011;8802;52.402;4.920;2023-08-30T10:36:27;6.30;;;2.78;;
17369;SDS011;8802;52.402;4.920;2023-08-30T10:38:54;4.22;;;2.70;;
17369;SDS011;8802;52.402;4.920;2023-08-30T10:41:21;3.97;;;1.90;;
17369;SDS011;8802;52.402;4.920;2023-08-30T10:43:50;5.47;;;2.38;;
17369;SDS011;8802;52.402;4.920;2023-08-30T10:46:28;5.85;;;2.45;;
17369;SDS011;8802;52.402;4.920;2023-08-30T10:49:07;5.95;;;2.40;;
17369;SDS011;8802;52.402;4.920;2023-08-30T10:51:36;4.30;;;1.98;;
17369;SDS011;8802;52.402;4.920;2023-08-30T10:54:10;5.72;;;2.20;;
17369;SDS011;8802;52.402;4.920;2023-08-30T10:56:45;6.70;;;2.10;;
17369;SDS011;8802;52.402;4.920;2023-08-30T10:59:17;4.28;;;1.85;;
17369;SDS011;8802;52.402;4.920;2023-08-30T11:01:45;5.90;;;2.20;;
17369;SDS011;8802;52.402;4.920;2023-08-30T11:04:14;7.18;;;2.40;;
17369;SDS011;8802;52.402;4.920;2023-08-30T11:06:43;6.18;;;2.20;;
17369;SDS011;8802;52.402;4.920;2023-08-30T11:09:12;11.20;;;2.83;;
17369;SDS011;8802;52.402;4.920;2023-08-30T11:11:42;7.45;;;2.13;;
17369;SDS011;8802;52.402;4.920;2023-08-30T11:14:10;5.15;;;1.90;;
17369;SDS011;8802;52.402;4.920;2023-08-30T11:16:37;8.45;;;2.40;;
17369;SDS011;8802;52.402;4.920;2023-08-30T11:19:05;6.07;;;2.22;;
17369;SDS011;8802;52.402;4.920;2023-08-30T11:21:36;6.30;;;1.67;;
17369;SDS011;8802;52.402;4.920;2023-08-30T11:24:04;4.57;;;1.55;;
17369;SDS011;8802;52.402;4.920;2023-08-30T11:26:33;7.65;;;2.65;;
17369;SDS011;8802;52.402;4.920;2023-08-30T11:29:03;6.30;;;1.90;;
17369;SDS011;8802;52.402;4.920;2023-08-30T11:31:31;5.30;;;2.30;;
17369;SDS011;8802;52.402;4.920;2023-08-30T11:33:58;5.18;;;2.17;;
17369;SDS011;8802;52.402;4.920;2023-08-30T11:36:26;6.15;;;2.20;;
17369;SDS011;8802;52.402;4.920;2023-08-30T11:38:55;6.45;;;1.90;;
17369;SDS011;8802;52.402;4.920;2023-08-30T11:41:23;7.10;;;2.00;;
17369;SDS011;8802;52.402;4.920;2023-08-30T11:43:51;5.78;;;2.30;;
17369;SDS011;8802;52.402;4.920;2023-08-30T11:46:19;8.73;;;2.08;;
17369;SDS011;8802;52.402;4.920;2023-08-30T11:48:47;4.40;;;1.90;;
17369;SDS011;8802;52.402;4.920;2023-08-30T11:51:16;6.13;;;1.92;;
17369;SDS011;8802;52.402;4.920;2023-08-30T11:53:44;6.78;;;2.20;;
17369;SDS011;8802;52.402;4.920;2023-08-30T11:56:13;6.90;;;1.80;;
17369;SDS011;8802;52.402;4.920;2023-08-30T11:58:41;6.57;;;2.33;;
17369;SDS011;8802;52.402;4.920;2023-08-30T12:01:09;5.63;;;2.03;;
17369;SDS011;8802;52.402;4.920;2023-08-30T12:03:37;5.22;;;2.20;;
17369;SDS011;8802;52.402;4.920;2023-08-30T12:06:08;5.82;;;1.90;;
17369;SDS011;8802;52.402;4.920;2023-08-30T12:08:36;5.65;;;1.58;;
17369;SDS011;8802;52.402;4.920;2023-08-30T12:11:03;6.40;;;1.60;;
17369;SDS011;8802;52.402;4.920;2023-08-30T12:13:31;6.18;;;1.58;;
17369;SDS011;8802;52.402;4.920;2023-08-30T12:15:59;6.10;;;2.08;;
17369;SDS011;8802;52.402;4.920;2023-08-30T12:18:28;4.90;;;1.55;;
17369;SDS011;8802;52.402;4.920;2023-08-30T12:20:58;5.88;;;1.50;;
17369;SDS011;8802;52.402;4.920;2023-08-30T12:23:25;4.90;;;1.35;;
17369;SDS011;8802;52.402;4.920;2023-08-30T12:25:57;4.38;;;1.98;;
17369;SDS011;8802;52.402;4.920;2023-08-30T12:28:31;3.67;;;1.17;;
17369;SDS011;8802;52.402;4.920;2023-08-30T12:31:00;3.40;;;1.10;;
17369;SDS011;8802;52.402;4.920;2023-08-30T12:33:29;4.32;;;0.98;;
17369;SDS011;8802;52.402;4.920;2023-08-30T12:35:56;4.53;;;1.15;;
17369;SDS011;8802;52.402;4.920;2023-08-30T12:38:24;4.22;;;1.20;;
17369;SDS011;8802;52.402;4.920;2023-08-30T12:40:52;4.45;;;0.75;;
17369;SDS011;8802;52.402;4.920;2023-08-30T12:43:20;3.35;;;1.00;;
17369;SDS011;8802;52.402;4.920;2023-08-30T12:45:49;4.10;;;0.90;;
17369;SDS011;8802;52.402;4.920;2023-08-30T12:48:17;3.42;;;0.88;;
17369;SDS011;8802;52.402;4.920;2023-08-30T12:50:45;3.47;;;0.85;;
17369;SDS011;8802;52.402;4.920;2023-08-30T12:53:13;4.80;;;0.98;;
17369;SDS011;8802;52.402;4.920;2023-08-30T12:55:41;3.45;;;1.05;;
17369;SDS011;8802;52.402;4.920;2023-08-30T12:58:09;4.32;;;1.08;;
17369;SDS011;8802;52.402;4.920;2023-08-30T13:00:36;4.00;;;1.00;;
17369;SDS011;8802;52.402;4.920;2023-08-30T13:03:05;2.08;;;0.95;;
17369;SDS011;8802;52.402;4.920;2023-08-30T13:05:32;5.32;;;1.35;;
17369;SDS011;8802;52.402;4.920;2023-08-30T13:07:59;8.35;;;2.25;;
17369;SDS011;8802;52.402;4.920;2023-08-30T13:10:27;4.28;;;1.50;;
17369;SDS011;8802;52.402;4.920;2023-08-30T13:12:54;4.35;;;1.20;;
17369;SDS011;8802;52.402;4.920;2023-08-30T13:15:22;2.88;;;1.10;;
17369;SDS011;8802;52.402;4.920;2023-08-30T13:17:49;3.08;;;0.98;;
17369;SDS011;8802;52.402;4.920;2023-08-30T13:20:17;5.80;;;1.38;;
17369;SDS011;8802;52.402;4.920;2023-08-30T13:22:45;6.53;;;1.73;;
17369;SDS011;8802;52.402;4.920;2023-08-30T13:25:12;7.65;;;1.83;;
17369;SDS011;8802;52.402;4.920;2023-08-30T13:27:39;5.75;;;1.65;;
17369;SDS011;8802;52.402;4.920;2023-08-30T13:30:06;3.45;;;1.10;;
17369;SDS011;8802;52.402;4.920;2023-08-30T13:32:33;4.70;;;1.38;;
17369;SDS011;8802;52.402;4.920;2023-08-30T13:35:00;2.85;;;1.10;;
17369;SDS011;8802;52.402;4.920;2023-08-30T13:37:29;3.33;;;1.23;;
17369;SDS011;8802;52.402;4.920;2023-08-30T13:39:56;3.22;;;1.10;;
17369;SDS011;8802;52.402;4.920;2023-08-30T13:42:23;3.33;;;0.90;;
17369;SDS011;8802;52.402;4.920;2023-08-30T13:44:50;3.40;;;1.10;;
17369;SDS011;8802;52.402;4.920;2023-08-30T13:47:17;3.45;;;1.10;;
17369;SDS011;8802;52.402;4.920;2023-08-30T13:49:45;3.03;;;1.08;;
17369;SDS011;8802;52.402;4.920;2023-08-30T13:52:12;2.33;;;0.98;;
17369;SDS011;8802;52.402;4.920;2023-08-30T13:54:40;3.95;;;1.20;;
17369;SDS011;8802;52.402;4.920;2023-08-30T13:57:07;3.88;;;1.00;;
17369;SDS011;8802;52.402;4.920;2023-08-30T13:59:34;3.42;;;0.95;;
17369;SDS011;8802;52.402;4.920;2023-08-30T14:02:01;2.53;;;1.10;;
17369;SDS011;8802;52.402;4.920;2023-08-30T14:04:29;2.92;;;1.05;;
17369;SDS011;8802;52.402;4.920;2023-08-30T14:06:58;2.83;;;1.00;;
17369;SDS011;8802;52.402;4.920;2023-08-30T14:09:24;2.65;;;0.90;;
17369;SDS011;8802;52.402;4.920;2023-08-30T14:11:53;2.90;;;1.27;;
17369;SDS011;8802;52.402;4.920;2023-08-30T14:14:21;4.75;;;1.27;;
17369;SDS011;8802;52.402;4.920;2023-08-30T14:16:48;4.07;;;1.40;;
17369;SDS011;8802;52.402;4.920;2023-08-30T14:19:15;5.53;;;1.55;;
17369;SDS011;8802;52.402;4.920;2023-08-30T14:21:43;3.15;;;1.13;;
17369;SDS011;8802;52.402;4.920;2023-08-30T14:24:10;3.40;;;1.23;;
17369;SDS011;8802;52.402;4.920;2023-08-30T14:26:37;3.90;;;1.45;;
17369;SDS011;8802;52.402;4.920;2023-08-30T14:29:05;4.10;;;1.40;;
17369;SDS011;8802;52.402;4.920;2023-08-30T14:31:32;6.10;;;1.42;;
17369;SDS011;8802;52.402;4.920;2023-08-30T14:33:59;4.13;;;1.77;;
17369;SDS011;8802;52.402;4.920;2023-08-30T14:36:25;3.78;;;1.48;;
17369;SDS011;8802;52.402;4.920;2023-08-30T14:38:52;3.63;;;1.55;;
17369;SDS011;8802;52.402;4.920;2023-08-30T14:41:19;5.88;;;1.58;;
17369;SDS011;8802;52.402;4.920;2023-08-30T14:43:46;4.00;;;1.60;;
17369;SDS011;8802;52.402;4.920;2023-08-30T14:46:14;6.70;;;2.22;;
17369;SDS011;8802;52.402;4.920;2023-08-30T14:48:43;3.97;;;1.45;;
17369;SDS011;8802;52.402;4.920;2023-08-30T14:51:10;3.10;;;1.00;;
17369;SDS011;8802;52.402;4.920;2023-08-30T14:53:37;2.97;;;1.00;;
17369;SDS011;8802;52.402;4.920;2023-08-30T14:56:04;4.00;;;0.98;;
17369;SDS011;8802;52.402;4.920;2023-08-30T14:58:32;3.92;;;1.02;;
17369;SDS011;8802;52.402;4.920;2023-08-30T15:01:00;3.00;;;0.98;;
17369;SDS011;8802;52.402;4.920;2023-08-30T15:03:29;3.30;;;0.88;;